createdAt,value
2019-02-02T00:00:43.774Z,958.08
2019-02-02T00:01:43.714Z,958.06
2019-02-02T00:02:43.683Z,958.01
2019-02-02T00:03:43.590Z,957.93
2019-02-02T00:04:43.530Z,957.92
2019-02-02T00:05:43.464Z,957.87
2019-02-02T00:06:43.405Z,957.90
2019-02-02T00:07:43.340Z,957.96
2019-02-02T00:08:43.277Z,957.94
2019-02-02T00:09:43.219Z,957.98
2019-02-02T00:10:43.154Z,957.97
2019-02-02T00:11:43.092Z,957.96
2019-02-02T00:12:43.029Z,957.86
2019-02-02T00:13:42.967Z,957.83
2019-02-02T00:14:45.110Z,957.91
2019-02-02T00:15:42.844Z,957.97
2019-02-02T00:16:42.780Z,957.98
2019-02-02T00:17:42.722Z,958.03
2019-02-02T00:18:42.665Z,957.91
2019-02-02T00:19:42.595Z,957.90
2019-02-02T00:20:42.531Z,958.00
2019-02-02T00:21:42.472Z,958.00
2019-02-02T00:22:42.413Z,958.05
2019-02-02T00:23:42.345Z,958.05
2019-02-02T00:24:42.283Z,958.08
2019-02-02T00:25:42.222Z,958.11
2019-02-02T00:26:42.160Z,958.13
2019-02-02T00:27:42.097Z,958.14
2019-02-02T00:28:42.035Z,958.17
2019-02-02T00:29:41.975Z,958.09
2019-02-02T00:30:41.912Z,958.10
2019-02-02T00:31:41.849Z,958.10
2019-02-02T00:32:41.786Z,958.18
2019-02-02T00:33:41.723Z,958.21
2019-02-02T00:34:41.662Z,958.15
2019-02-02T00:35:41.601Z,958.16
2019-02-02T00:36:41.547Z,958.22
2019-02-02T00:37:41.480Z,958.28
2019-02-02T00:38:41.415Z,958.26
2019-02-02T00:39:41.351Z,958.21
2019-02-02T00:40:41.291Z,958.22
2019-02-02T00:41:41.227Z,958.26
2019-02-02T00:42:41.165Z,958.26
2019-02-02T00:43:41.105Z,958.28
2019-02-02T00:44:41.040Z,958.24
2019-02-02T00:45:40.978Z,958.19
2019-02-02T00:46:40.916Z,958.14
2019-02-02T00:47:40.854Z,958.22
2019-02-02T00:48:40.792Z,958.17
2019-02-02T00:49:40.731Z,958.17
2019-02-02T00:50:40.668Z,958.12
2019-02-02T00:51:40.605Z,958.10
2019-02-02T00:52:40.542Z,958.12
2019-02-02T00:53:40.487Z,958.14
2019-02-02T00:54:40.420Z,958.15
2019-02-02T00:55:40.358Z,958.14
2019-02-02T00:56:40.294Z,958.18
2019-02-02T00:57:40.237Z,958.26
2019-02-02T00:58:40.172Z,958.30
2019-02-02T00:59:40.109Z,958.31
2019-02-02T01:00:40.045Z,958.29
2019-02-02T01:01:39.984Z,958.21
2019-02-02T01:02:39.922Z,958.19
2019-02-02T01:03:39.865Z,958.14
2019-02-02T01:04:39.796Z,958.10
2019-02-02T01:05:39.738Z,958.08
2019-02-02T01:06:39.673Z,958.10
2019-02-02T01:07:39.612Z,958.09
2019-02-02T01:08:39.549Z,958.09
2019-02-02T01:09:39.486Z,958.12
2019-02-02T01:10:39.425Z,958.13
2019-02-02T01:11:39.362Z,958.12
2019-02-02T01:12:39.300Z,958.09
2019-02-02T01:13:39.237Z,958.14
2019-02-02T01:14:39.176Z,958.15
2019-02-02T01:15:39.115Z,958.28
2019-02-02T01:16:39.054Z,958.37
2019-02-02T01:17:38.989Z,958.40
2019-02-02T01:18:38.928Z,958.38
2019-02-02T01:19:38.867Z,958.34
2019-02-02T01:20:38.803Z,958.40
2019-02-02T01:21:38.740Z,958.35
2019-02-02T01:22:38.678Z,958.36
2019-02-02T01:23:38.617Z,958.33
2019-02-02T01:24:38.554Z,958.32
2019-02-02T01:25:38.496Z,958.30
2019-02-02T01:26:38.429Z,958.36
2019-02-02T01:27:38.369Z,958.40
2019-02-02T01:28:38.305Z,958.33
2019-02-02T01:29:38.245Z,958.31
2019-02-02T01:30:38.183Z,958.34
2019-02-02T01:31:38.120Z,958.30
2019-02-02T01:32:38.057Z,958.38
2019-02-02T01:33:37.994Z,958.43
2019-02-02T01:34:37.934Z,958.41
2019-02-02T01:35:37.871Z,958.46
2019-02-02T01:36:37.808Z,958.51
2019-02-02T01:37:37.747Z,958.57
2019-02-02T01:38:37.690Z,958.55
2019-02-02T01:39:37.622Z,958.56
2019-02-02T01:40:37.559Z,958.43
2019-02-02T01:41:37.497Z,958.51
2019-02-02T01:42:37.435Z,958.46
2019-02-02T01:43:37.373Z,958.45
2019-02-02T01:44:37.311Z,958.43
2019-02-02T01:45:37.248Z,958.39
2019-02-02T01:46:37.188Z,958.37
2019-02-02T01:47:37.125Z,958.48
2019-02-02T01:48:37.063Z,958.52
2019-02-02T01:49:37.000Z,958.58
2019-02-02T01:50:36.942Z,958.57
2019-02-02T01:51:36.877Z,958.56
2019-02-02T01:52:36.813Z,958.53
2019-02-02T01:53:36.751Z,958.52
2019-02-02T01:54:38.479Z,958.57
2019-02-02T01:55:36.629Z,958.52
2019-02-02T01:56:36.564Z,958.50
2019-02-02T01:57:36.502Z,958.50
2019-02-02T01:58:36.440Z,958.52
2019-02-02T01:59:36.379Z,958.54
2019-02-02T02:00:36.315Z,958.52
2019-02-02T02:01:36.253Z,958.47
2019-02-02T02:02:36.195Z,958.47
2019-02-02T02:03:36.129Z,958.50
2019-02-02T02:04:36.066Z,958.50
2019-02-02T02:05:36.005Z,958.50
2019-02-02T02:06:35.943Z,958.44
2019-02-02T02:07:35.881Z,958.47
2019-02-02T02:08:35.819Z,958.48
2019-02-02T02:09:35.756Z,958.42
2019-02-02T02:10:35.695Z,958.44
2019-02-02T02:11:35.632Z,958.44
2019-02-02T02:12:35.575Z,958.44
2019-02-02T02:13:35.506Z,958.46
2019-02-02T02:14:35.445Z,958.45
2019-02-02T02:15:35.382Z,958.45
2019-02-02T02:16:35.319Z,958.47
2019-02-02T02:17:35.261Z,958.42
2019-02-02T02:18:35.198Z,958.42
2019-02-02T02:19:35.133Z,958.42
2019-02-02T02:20:35.071Z,958.43
2019-02-02T02:21:35.009Z,958.44
2019-02-02T02:22:41.193Z,958.42
2019-02-02T02:23:34.885Z,958.40
2019-02-02T02:24:34.822Z,958.40
2019-02-02T02:25:34.765Z,958.37
2019-02-02T02:26:34.701Z,958.34
2019-02-02T02:27:34.644Z,958.39
2019-02-02T02:28:34.575Z,958.37
2019-02-02T02:29:34.512Z,958.43
2019-02-02T02:30:34.450Z,958.37
2019-02-02T02:31:34.390Z,958.38
2019-02-02T02:32:34.324Z,958.39
2019-02-02T02:33:34.267Z,958.40
2019-02-02T02:34:34.201Z,958.36
2019-02-02T02:35:34.138Z,958.44
2019-02-02T02:36:34.079Z,958.40
2019-02-02T02:37:34.144Z,958.44
2019-02-02T02:38:33.952Z,958.41
2019-02-02T02:39:33.889Z,958.39
2019-02-02T02:40:33.827Z,958.36
2019-02-02T02:41:33.765Z,958.34
2019-02-02T02:42:33.703Z,958.37
2019-02-02T02:43:33.643Z,958.42
2019-02-02T02:44:33.577Z,958.41
2019-02-02T02:45:33.517Z,958.39
2019-02-02T02:46:33.453Z,958.45
2019-02-02T02:47:33.391Z,958.45
2019-02-02T02:48:33.329Z,958.42
2019-02-02T02:49:33.266Z,958.41
2019-02-02T02:50:33.204Z,958.41
2019-02-02T02:51:33.143Z,958.39
2019-02-02T02:52:33.082Z,958.37
2019-02-02T02:53:33.017Z,958.35
2019-02-02T02:54:32.955Z,958.37
2019-02-02T02:55:32.893Z,958.37
2019-02-02T02:56:32.835Z,958.38
2019-02-02T02:57:32.784Z,958.35
2019-02-02T02:58:40.790Z,958.35
2019-02-02T02:59:32.646Z,958.34
2019-02-02T03:00:32.589Z,958.37
2019-02-02T03:01:32.521Z,958.37
2019-02-02T03:02:32.464Z,958.46
2019-02-02T03:03:32.397Z,958.44
2019-02-02T03:04:32.332Z,958.52
2019-02-02T03:05:32.270Z,958.58
2019-02-02T03:06:32.209Z,958.66
2019-02-02T03:07:32.151Z,958.67
2019-02-02T03:08:32.086Z,958.67
2019-02-02T03:09:32.022Z,958.68
2019-02-02T03:10:31.960Z,958.64
2019-02-02T03:11:31.897Z,958.61
2019-02-02T03:12:31.834Z,958.59
2019-02-02T03:13:31.772Z,958.61
2019-02-02T03:14:31.709Z,958.61
2019-02-02T03:15:31.648Z,958.60
2019-02-02T03:16:31.585Z,958.61
2019-02-02T03:17:31.523Z,958.61
2019-02-02T03:18:31.463Z,958.66
2019-02-02T03:19:31.399Z,958.69
2019-02-02T03:20:31.338Z,958.68
2019-02-02T03:21:31.275Z,958.65
2019-02-02T03:22:31.215Z,958.59
2019-02-02T03:23:31.153Z,958.58
2019-02-02T03:24:31.089Z,958.53
2019-02-02T03:25:31.106Z,958.50
2019-02-02T03:26:30.964Z,958.53
2019-02-02T03:27:30.948Z,958.47
2019-02-02T03:28:30.844Z,958.50
2019-02-02T03:29:30.777Z,958.50
2019-02-02T03:30:30.716Z,958.57
2019-02-02T03:31:30.750Z,958.54
2019-02-02T03:32:30.599Z,958.53
2019-02-02T03:33:30.528Z,958.55
2019-02-02T03:34:30.464Z,958.53
2019-02-02T03:35:30.403Z,958.54
2019-02-02T03:36:30.339Z,958.60
2019-02-02T03:37:30.281Z,958.58
2019-02-02T03:38:30.215Z,958.55
2019-02-02T03:39:30.155Z,958.51
2019-02-02T03:40:30.097Z,958.59
2019-02-02T03:41:30.028Z,958.66
2019-02-02T03:42:29.967Z,958.64
2019-02-02T03:43:29.904Z,958.65
2019-02-02T03:44:29.841Z,958.67
2019-02-02T03:45:29.783Z,958.76
2019-02-02T03:46:29.723Z,958.88
2019-02-02T03:47:29.655Z,958.85
2019-02-02T03:48:29.591Z,958.85
2019-02-02T03:49:29.534Z,958.88
2019-02-02T03:50:29.469Z,958.87
2019-02-02T03:51:29.408Z,958.88
2019-02-02T03:52:29.342Z,958.94
2019-02-02T03:53:29.282Z,958.95
2019-02-02T03:54:29.220Z,958.92
2019-02-02T03:55:29.157Z,958.96
2019-02-02T03:56:29.094Z,958.98
2019-02-02T03:57:29.031Z,958.95
2019-02-02T03:58:28.969Z,958.97
2019-02-02T03:59:28.908Z,958.93
2019-02-02T04:00:28.847Z,958.98
2019-02-02T04:01:30.108Z,958.95
2019-02-02T04:02:28.722Z,959.00
2019-02-02T04:03:28.659Z,959.09
2019-02-02T04:04:28.614Z,959.09
2019-02-02T04:05:28.535Z,959.09
2019-02-02T04:06:28.476Z,959.18
2019-02-02T04:07:28.410Z,959.19
2019-02-02T04:08:28.349Z,959.17
2019-02-02T04:09:28.285Z,959.22
2019-02-02T04:10:28.222Z,959.19
2019-02-02T04:11:28.170Z,959.22
2019-02-02T04:12:28.099Z,959.24
2019-02-02T04:13:28.036Z,959.23
2019-02-02T04:14:27.978Z,959.18
2019-02-02T04:15:27.912Z,959.19
2019-02-02T04:16:27.851Z,959.16
2019-02-02T04:17:27.787Z,959.08
2019-02-02T04:18:27.727Z,958.99
2019-02-02T04:19:27.665Z,959.00
2019-02-02T04:20:27.599Z,959.00
2019-02-02T04:21:27.540Z,959.01
2019-02-02T04:22:27.586Z,959.02
2019-02-02T04:23:27.415Z,959.14
2019-02-02T04:24:27.349Z,959.21
2019-02-02T04:25:27.290Z,959.27
2019-02-02T04:26:27.226Z,959.38
2019-02-02T04:27:27.163Z,959.43
2019-02-02T04:28:27.100Z,959.43
2019-02-02T04:29:27.041Z,959.44
2019-02-02T04:30:26.978Z,959.46
2019-02-02T04:31:26.915Z,959.43
2019-02-02T04:32:26.852Z,959.43
2019-02-02T04:33:26.790Z,959.41
2019-02-02T04:34:26.727Z,959.37
2019-02-02T04:35:26.669Z,959.32
2019-02-02T04:36:26.603Z,959.27
2019-02-02T04:37:26.624Z,959.23
2019-02-02T04:38:26.478Z,959.18
2019-02-02T04:39:26.416Z,959.19
2019-02-02T04:40:26.353Z,959.27
2019-02-02T04:41:26.293Z,959.31
2019-02-02T04:42:26.229Z,959.46
2019-02-02T04:43:26.166Z,959.48
2019-02-02T04:44:26.104Z,959.54
2019-02-02T04:45:26.049Z,959.57
2019-02-02T04:46:25.979Z,959.60
2019-02-02T04:47:25.918Z,959.68
2019-02-02T04:48:25.855Z,959.74
2019-02-02T04:49:25.793Z,959.76
2019-02-02T04:50:25.730Z,959.74
2019-02-02T04:51:25.668Z,959.74
2019-02-02T04:52:25.607Z,959.66
2019-02-02T04:53:25.543Z,959.57
2019-02-02T04:54:25.481Z,959.54
2019-02-02T04:55:25.418Z,959.46
2019-02-02T04:56:25.357Z,959.44
2019-02-02T04:57:25.294Z,959.37
2019-02-02T04:58:25.232Z,959.28
2019-02-02T04:59:29.208Z,959.23
2019-02-02T05:00:25.108Z,959.13
2019-02-02T05:01:25.046Z,959.05
2019-02-02T05:02:24.982Z,959.02
2019-02-02T05:03:24.921Z,958.93
2019-02-02T05:04:24.861Z,958.98
2019-02-02T05:05:24.799Z,959.00
2019-02-02T05:06:24.733Z,959.12
2019-02-02T05:07:24.671Z,959.15
2019-02-02T05:08:24.608Z,959.22
2019-02-02T05:09:24.546Z,959.23
2019-02-02T05:10:24.607Z,959.23
2019-02-02T05:11:24.434Z,959.23
2019-02-02T05:12:24.365Z,959.31
2019-02-02T05:13:24.297Z,959.27
2019-02-02T05:14:24.238Z,959.27
2019-02-02T05:15:24.173Z,959.30
2019-02-02T05:16:24.109Z,959.26
2019-02-02T05:17:24.047Z,959.33
2019-02-02T05:18:23.985Z,959.36
2019-02-02T05:19:23.923Z,959.48
2019-02-02T05:20:23.862Z,959.50
2019-02-02T05:21:23.800Z,959.56
2019-02-02T05:22:23.737Z,959.64
2019-02-02T05:23:23.678Z,959.71
2019-02-02T05:24:23.612Z,959.71
2019-02-02T05:25:23.562Z,959.73
2019-02-02T05:26:23.487Z,959.72
2019-02-02T05:27:23.430Z,959.70
2019-02-02T05:28:23.366Z,959.76
2019-02-02T05:29:23.301Z,959.80
2019-02-02T05:30:23.239Z,959.79
2019-02-02T05:31:23.177Z,959.82
2019-02-02T05:32:23.112Z,959.87
2019-02-02T05:33:23.053Z,959.89
2019-02-02T05:34:22.990Z,959.84
2019-02-02T05:35:22.930Z,959.79
2019-02-02T05:36:22.863Z,959.77
2019-02-02T05:37:22.812Z,959.79
2019-02-02T05:38:22.739Z,959.73
2019-02-02T05:39:22.681Z,959.73
2019-02-02T05:40:22.616Z,959.69
2019-02-02T05:41:22.555Z,959.65
2019-02-02T05:42:22.492Z,959.61
2019-02-02T05:43:22.429Z,959.56
2019-02-02T05:44:22.366Z,959.47
2019-02-02T05:45:22.304Z,959.42
2019-02-02T05:46:22.241Z,959.41
2019-02-02T05:47:22.183Z,959.31
2019-02-02T05:48:22.117Z,959.32
2019-02-02T05:49:22.053Z,959.27
2019-02-02T05:50:21.992Z,959.24
2019-02-02T05:51:21.929Z,959.23
2019-02-02T05:52:21.885Z,959.33
2019-02-02T05:53:21.804Z,959.42
2019-02-02T05:54:21.743Z,959.52
2019-02-02T05:55:21.679Z,959.63
2019-02-02T05:56:21.620Z,959.69
2019-02-02T05:57:21.554Z,959.73
2019-02-02T05:58:21.496Z,959.74
2019-02-02T05:59:21.430Z,959.74
2019-02-02T06:00:21.367Z,959.75
2019-02-02T06:01:21.306Z,959.78
2019-02-02T06:02:21.244Z,959.73
2019-02-02T06:03:21.182Z,959.71
2019-02-02T06:04:21.118Z,959.68
2019-02-02T06:05:21.058Z,959.69
2019-02-02T06:06:20.993Z,959.78
2019-02-02T06:07:20.932Z,959.80
2019-02-02T06:08:20.869Z,959.83
2019-02-02T06:09:22.811Z,959.69
2019-02-02T06:10:20.744Z,959.69
2019-02-02T06:11:20.682Z,959.76
2019-02-02T06:12:20.620Z,959.80
2019-02-02T06:13:20.558Z,959.92
2019-02-02T06:14:20.496Z,960.02
2019-02-02T06:15:20.447Z,960.02
2019-02-02T06:16:20.369Z,959.94
2019-02-02T06:17:20.309Z,959.98
2019-02-02T06:18:20.246Z,959.94
2019-02-02T06:19:20.187Z,960.09
2019-02-02T06:20:20.121Z,960.16
2019-02-02T06:21:20.058Z,960.23
2019-02-02T06:22:19.998Z,960.16
2019-02-02T06:23:19.989Z,960.17
2019-02-02T06:24:19.871Z,960.15
2019-02-02T06:25:19.811Z,960.19
2019-02-02T06:26:19.748Z,960.24
2019-02-02T06:27:19.684Z,960.30
2019-02-02T06:28:19.622Z,960.28
2019-02-02T06:29:19.587Z,960.27
2019-02-02T06:30:19.520Z,960.27
2019-02-02T06:31:19.440Z,960.31
2019-02-02T06:32:19.376Z,960.30
2019-02-02T06:33:19.313Z,960.34
2019-02-02T06:34:19.251Z,960.30
2019-02-02T06:35:19.249Z,960.37
2019-02-02T06:36:19.123Z,960.37
2019-02-02T06:37:19.061Z,960.40
2019-02-02T06:38:19.003Z,960.53
2019-02-02T06:39:18.936Z,960.62
2019-02-02T06:40:18.999Z,960.71
2019-02-02T06:41:18.811Z,960.72
2019-02-02T06:42:18.750Z,960.70
2019-02-02T06:43:18.687Z,960.65
2019-02-02T06:44:18.627Z,960.68
2019-02-02T06:45:18.564Z,960.67
2019-02-02T06:46:18.505Z,960.75
2019-02-02T06:47:18.439Z,960.73
2019-02-02T06:48:18.374Z,960.80
2019-02-02T06:49:18.313Z,960.82
2019-02-02T06:50:18.250Z,960.80
2019-02-02T06:51:18.189Z,960.88
2019-02-02T06:52:18.126Z,960.87
2019-02-02T06:53:18.065Z,960.97
2019-02-02T06:54:18.002Z,960.93
2019-02-02T06:55:17.941Z,960.85
2019-02-02T06:56:17.878Z,960.92
2019-02-02T06:57:17.814Z,960.92
2019-02-02T06:58:17.752Z,960.96
2019-02-02T06:59:17.689Z,960.99
2019-02-02T07:00:17.626Z,961.00
2019-02-02T07:01:17.564Z,961.11
2019-02-02T07:02:17.502Z,961.11
2019-02-02T07:03:17.445Z,961.09
2019-02-02T07:04:17.379Z,961.10
2019-02-02T07:05:17.313Z,961.10
2019-02-02T07:06:17.253Z,961.06
2019-02-02T07:07:17.190Z,961.06
2019-02-02T07:08:17.127Z,961.08
2019-02-02T07:09:17.065Z,961.09
2019-02-02T07:10:17.002Z,961.10
2019-02-02T07:11:17.688Z,961.12
2019-02-02T07:12:16.877Z,961.10
2019-02-02T07:13:16.815Z,961.09
2019-02-02T07:14:16.753Z,961.09
2019-02-02T07:15:16.693Z,961.13
2019-02-02T07:16:16.628Z,961.17
2019-02-02T07:17:16.565Z,961.18
2019-02-02T07:18:16.503Z,961.14
2019-02-02T07:19:16.455Z,961.19
2019-02-02T07:20:16.384Z,961.17
2019-02-02T07:21:16.316Z,961.21
2019-02-02T07:22:16.261Z,961.25
2019-02-02T07:23:16.195Z,961.28
2019-02-02T07:24:16.134Z,961.28
2019-02-02T07:25:16.067Z,961.22
2019-02-02T07:26:16.010Z,961.32
2019-02-02T07:27:16.041Z,961.36
2019-02-02T07:28:15.880Z,961.42
2019-02-02T07:29:15.818Z,961.42
2019-02-02T07:30:27.542Z,961.47
2019-02-02T07:31:15.694Z,961.47
2019-02-02T07:32:15.631Z,961.51
2019-02-02T07:33:15.572Z,961.53
2019-02-02T07:34:15.506Z,961.59
2019-02-02T07:35:15.444Z,961.58
2019-02-02T07:36:15.380Z,961.58
2019-02-02T07:37:15.319Z,961.60
2019-02-02T07:38:15.257Z,961.59
2019-02-02T07:39:15.194Z,961.61
2019-02-02T07:40:15.132Z,961.57
2019-02-02T07:41:15.068Z,961.52
2019-02-02T07:42:15.006Z,961.58
2019-02-02T07:43:14.948Z,961.56
2019-02-02T07:44:14.881Z,961.56
2019-02-02T07:45:14.822Z,961.55
2019-02-02T07:46:15.361Z,961.58
2019-02-02T07:47:14.695Z,961.55
2019-02-02T07:48:14.632Z,961.58
2019-02-02T07:49:14.570Z,961.57
2019-02-02T07:50:14.508Z,961.59
2019-02-02T07:51:14.445Z,961.61
2019-02-02T07:52:14.382Z,961.55
2019-02-02T07:53:15.203Z,961.56
2019-02-02T07:54:14.458Z,961.59
2019-02-02T07:55:14.199Z,961.65
2019-02-02T07:56:14.137Z,961.62
2019-02-02T07:57:14.073Z,961.63
2019-02-02T07:58:14.008Z,961.65
2019-02-02T07:59:13.946Z,961.67
2019-02-02T08:00:15.892Z,961.70
2019-02-02T08:01:13.837Z,961.76
2019-02-02T08:02:13.763Z,961.84
2019-02-02T08:03:13.700Z,961.84
2019-02-02T08:04:13.633Z,961.84
2019-02-02T08:05:13.573Z,961.87
2019-02-02T08:06:13.513Z,961.88
2019-02-02T08:07:13.447Z,961.83
2019-02-02T08:08:13.385Z,961.82
2019-02-02T08:09:13.321Z,961.86
2019-02-02T08:10:13.260Z,961.86
2019-02-02T08:11:13.199Z,961.83
2019-02-02T08:12:13.134Z,961.81
2019-02-02T08:13:13.072Z,961.85
2019-02-02T08:14:13.014Z,961.91
2019-02-02T08:15:12.948Z,961.97
2019-02-02T08:16:12.885Z,962.01
2019-02-02T08:17:12.823Z,962.00
2019-02-02T08:18:12.761Z,961.96
2019-02-02T08:19:12.698Z,961.99
2019-02-02T08:20:12.638Z,962.00
2019-02-02T08:21:12.572Z,962.03
2019-02-02T08:22:12.511Z,962.06
2019-02-02T08:23:12.449Z,962.12
2019-02-02T08:24:12.388Z,962.11
2019-02-02T08:25:12.324Z,962.06
2019-02-02T08:26:12.261Z,962.16
2019-02-02T08:27:12.204Z,962.16
2019-02-02T08:28:12.136Z,962.22
2019-02-02T08:29:12.075Z,962.20
2019-02-02T08:30:12.012Z,962.13
2019-02-02T08:31:11.951Z,962.14
2019-02-02T08:32:11.887Z,962.18
2019-02-02T08:33:11.824Z,962.15
2019-02-02T08:34:11.762Z,962.17
2019-02-02T08:35:11.701Z,962.15
2019-02-02T08:36:11.640Z,962.20
2019-02-02T08:37:11.576Z,962.24
2019-02-02T08:38:11.513Z,962.34
2019-02-02T08:39:11.451Z,962.35
2019-02-02T08:40:11.390Z,962.37
2019-02-02T08:41:11.327Z,962.41
2019-02-02T08:42:11.265Z,962.41
2019-02-02T08:43:11.202Z,962.37
2019-02-02T08:44:11.137Z,962.43
2019-02-02T08:45:11.076Z,962.44
2019-02-02T08:46:11.017Z,962.46
2019-02-02T08:47:10.952Z,962.50
2019-02-02T08:48:10.888Z,962.51
2019-02-02T08:49:10.828Z,962.55
2019-02-02T08:50:10.765Z,962.58
2019-02-02T08:51:10.702Z,962.54
2019-02-02T08:52:10.639Z,962.55
2019-02-02T08:53:10.579Z,962.54
2019-02-02T08:54:10.566Z,962.58
2019-02-02T08:55:10.455Z,962.56
2019-02-02T08:56:10.425Z,962.63
2019-02-02T08:57:10.332Z,962.66
2019-02-02T08:58:10.360Z,962.69
2019-02-02T08:59:10.204Z,962.71
2019-02-02T09:00:10.143Z,962.78
2019-02-02T09:01:10.081Z,962.78
2019-02-02T09:02:10.017Z,962.81
2019-02-02T09:03:10.033Z,962.81
2019-02-02T09:04:10.075Z,962.85
2019-02-02T09:05:09.831Z,962.83
2019-02-02T09:06:09.768Z,962.86
2019-02-02T09:07:09.705Z,962.84
2019-02-02T09:08:09.646Z,962.88
2019-02-02T09:09:09.580Z,962.91
2019-02-02T09:10:09.517Z,962.93
2019-02-02T09:11:09.459Z,962.94
2019-02-02T09:12:09.391Z,962.95
2019-02-02T09:13:09.329Z,962.95
2019-02-02T09:14:09.267Z,962.94
2019-02-02T09:15:09.206Z,963.02
2019-02-02T09:16:09.142Z,963.02
2019-02-02T09:17:09.081Z,963.05
2019-02-02T09:18:09.018Z,963.08
2019-02-02T09:19:08.955Z,963.07
2019-02-02T09:20:08.892Z,963.06
2019-02-02T09:21:08.830Z,963.02
2019-02-02T09:22:08.769Z,963.08
2019-02-02T09:23:08.707Z,963.05
2019-02-02T09:24:09.343Z,963.03
2019-02-02T09:25:08.583Z,963.03
2019-02-02T09:26:08.521Z,963.01
2019-02-02T09:27:08.457Z,963.06
2019-02-02T09:28:08.434Z,963.01
2019-02-02T09:29:10.394Z,963.03
2019-02-02T09:30:08.274Z,963.02
2019-02-02T09:31:15.510Z,963.03
2019-02-02T09:32:08.146Z,963.04
2019-02-02T09:33:08.083Z,963.02
2019-02-02T09:34:08.023Z,963.01
2019-02-02T09:35:07.958Z,962.98
2019-02-02T09:36:07.895Z,962.96
2019-02-02T09:37:07.834Z,962.96
2019-02-02T09:38:07.770Z,962.94
2019-02-02T09:39:07.708Z,962.94
2019-02-02T09:40:07.645Z,962.91
2019-02-02T09:41:07.583Z,962.89
2019-02-02T09:42:07.522Z,962.87
2019-02-02T09:43:07.459Z,962.90
2019-02-02T09:44:07.395Z,962.92
2019-02-02T09:45:07.335Z,962.89
2019-02-02T09:46:07.272Z,962.91
2019-02-02T09:47:07.210Z,962.95
2019-02-02T09:48:07.147Z,962.94
2019-02-02T09:49:07.084Z,962.94
2019-02-02T09:50:07.022Z,962.98
2019-02-02T09:51:06.960Z,962.97
2019-02-02T09:52:06.897Z,962.99
2019-02-02T09:53:06.835Z,963.00
2019-02-02T09:54:09.116Z,962.97
2019-02-02T09:55:06.712Z,963.03
2019-02-02T09:56:06.650Z,963.02
2019-02-02T09:57:06.585Z,963.03
2019-02-02T09:58:08.567Z,963.00
2019-02-02T09:59:09.251Z,963.00
2019-02-02T10:00:06.407Z,963.00
2019-02-02T10:01:06.390Z,963.04
2019-02-02T10:02:06.275Z,963.07
2019-02-02T10:03:06.214Z,963.05
2019-02-02T10:04:06.152Z,963.04
2019-02-02T10:05:06.086Z,963.04
2019-02-02T10:06:06.034Z,963.05
2019-02-02T10:07:05.962Z,963.07
2019-02-02T10:08:05.900Z,963.13
2019-02-02T10:09:05.837Z,963.07
2019-02-02T10:10:05.780Z,963.06
2019-02-02T10:11:05.714Z,963.11
2019-02-02T10:12:05.649Z,963.14
2019-02-02T10:13:05.590Z,963.17
2019-02-02T10:14:05.526Z,963.16
2019-02-02T10:15:05.464Z,963.20
2019-02-02T10:16:05.400Z,963.22
2019-02-02T10:17:05.339Z,963.19
2019-02-02T10:18:05.277Z,963.19
2019-02-02T10:19:05.218Z,963.20
2019-02-02T10:20:05.154Z,963.22
2019-02-02T10:21:05.094Z,963.30
2019-02-02T10:22:05.027Z,963.28
2019-02-02T10:23:04.965Z,963.25
2019-02-02T10:24:04.903Z,963.28
2019-02-02T10:25:04.842Z,963.29
2019-02-02T10:26:04.785Z,963.30
2019-02-02T10:27:04.719Z,963.29
2019-02-02T10:28:04.660Z,963.32
2019-02-02T10:29:04.593Z,963.28
2019-02-02T10:30:04.534Z,963.31
2019-02-02T10:31:04.467Z,963.29
2019-02-02T10:32:04.405Z,963.27
2019-02-02T10:33:04.343Z,963.31
2019-02-02T10:34:04.283Z,963.33
2019-02-02T10:35:04.219Z,963.29
2019-02-02T10:36:04.158Z,963.37
2019-02-02T10:37:04.093Z,963.38
2019-02-02T10:38:04.033Z,963.38
2019-02-02T10:39:03.983Z,963.39
2019-02-02T10:40:03.909Z,963.36
2019-02-02T10:41:03.845Z,963.38
2019-02-02T10:42:03.782Z,963.40
2019-02-02T10:43:03.725Z,963.39
2019-02-02T10:44:03.658Z,963.41
2019-02-02T10:45:03.603Z,963.48
2019-02-02T10:46:03.534Z,963.51
2019-02-02T10:47:03.473Z,963.47
2019-02-02T10:48:03.411Z,963.48
2019-02-02T10:49:03.347Z,963.50
2019-02-02T10:50:03.286Z,963.53
2019-02-02T10:51:03.227Z,963.54
2019-02-02T10:52:03.161Z,963.49
2019-02-02T10:53:03.732Z,963.53
2019-02-02T10:54:05.484Z,963.55
2019-02-02T10:55:02.974Z,963.57
2019-02-02T10:56:02.911Z,963.60
2019-02-02T10:57:02.852Z,963.63
2019-02-02T10:58:02.788Z,963.66
2019-02-02T10:59:02.727Z,963.67
2019-02-02T11:00:02.664Z,963.69
2019-02-02T11:01:02.601Z,963.70
2019-02-02T11:02:02.539Z,963.71
2019-02-02T11:03:02.482Z,963.74
2019-02-02T11:04:02.419Z,963.76
2019-02-02T11:05:02.360Z,963.80
2019-02-02T11:06:02.416Z,963.79
2019-02-02T11:07:02.356Z,963.81
2019-02-02T11:08:02.173Z,963.81
2019-02-02T11:09:02.134Z,963.84
2019-02-02T11:10:02.166Z,963.83
2019-02-02T11:11:02.217Z,963.86
2019-02-02T11:12:01.917Z,963.86
2019-02-02T11:13:01.884Z,963.92
2019-02-02T11:14:02.061Z,963.88
2019-02-02T11:15:01.788Z,963.91
2019-02-02T11:16:01.722Z,963.89
2019-02-02T11:17:01.777Z,963.89
2019-02-02T11:18:01.697Z,963.88
2019-02-02T11:19:01.541Z,963.89
2019-02-02T11:20:01.445Z,963.87
2019-02-02T11:21:01.357Z,963.83
2019-02-02T11:22:01.329Z,963.82
2019-02-02T11:23:01.259Z,963.87
2019-02-02T11:24:01.177Z,963.84
2019-02-02T11:25:01.190Z,963.81
2019-02-02T11:26:01.089Z,963.87
2019-02-02T11:27:01.002Z,963.89
2019-02-02T11:28:00.975Z,963.88
2019-02-02T11:29:00.902Z,963.83
2019-02-02T11:30:00.835Z,963.85
2019-02-02T11:31:00.737Z,963.89
2019-02-02T11:42:41.460Z,963.92
2019-02-02T11:43:41.137Z,963.93
2019-02-02T11:45:33.937Z,963.91
2019-02-02T11:46:33.844Z,963.93
2019-02-02T11:48:26.654Z,964.02
2019-02-02T11:49:26.555Z,964.05
2019-02-02T11:51:19.332Z,964.01
2019-02-02T11:52:19.265Z,964.02
2019-02-02T11:54:12.066Z,964.05
2019-02-02T11:55:11.973Z,964.03
2019-02-02T11:57:04.784Z,964.01
2019-02-02T11:58:04.684Z,963.96
2019-02-02T11:59:57.457Z,963.94
2019-02-02T12:00:57.393Z,963.92
2019-02-02T12:02:50.205Z,963.93
2019-02-02T12:03:50.100Z,963.94
2019-02-02T12:05:42.879Z,963.92
2019-02-02T12:06:42.812Z,963.93
2019-02-02T12:08:35.634Z,963.90
2019-02-02T12:09:35.522Z,963.94
2019-02-02T12:11:28.330Z,963.96
2019-02-02T12:12:28.230Z,964.00
2019-02-02T12:14:21.600Z,964.03
2019-02-02T12:15:20.958Z,964.02
2019-02-02T12:17:13.719Z,964.00
2019-02-02T12:18:13.674Z,964.08
2019-02-02T12:20:06.459Z,964.01
2019-02-02T12:21:06.359Z,964.03
2019-02-02T12:22:59.137Z,964.02
2019-02-02T12:23:59.069Z,964.01
2019-02-02T12:25:53.130Z,963.96
2019-02-02T12:26:51.783Z,963.95
2019-02-02T12:28:44.715Z,963.98
2019-02-02T12:29:44.488Z,963.97
2019-02-02T12:31:37.793Z,963.93
2019-02-02T12:32:37.693Z,963.93
2019-02-02T12:33:37.631Z,963.93
2019-02-02T12:34:37.569Z,963.98
2019-02-02T12:35:37.509Z,963.99
2019-02-02T12:36:37.443Z,963.99
2019-02-02T12:37:37.388Z,963.96
2019-02-02T12:38:37.320Z,964.00
2019-02-02T12:39:37.259Z,964.01
2019-02-02T12:40:37.195Z,964.07
2019-02-02T12:41:37.133Z,964.03
2019-02-02T12:42:37.073Z,964.00
2019-02-02T12:43:37.009Z,964.00
2019-02-02T12:44:36.953Z,964.01
2019-02-02T12:45:36.887Z,964.01
2019-02-02T12:46:36.825Z,964.03
2019-02-02T12:47:36.761Z,964.03
2019-02-02T12:48:36.699Z,964.07
2019-02-02T12:49:36.639Z,964.07
2019-02-02T12:50:36.576Z,964.05
2019-02-02T12:51:36.513Z,964.15
2019-02-02T12:52:36.455Z,964.18
2019-02-02T12:53:36.392Z,964.15